createdAt,value
2022-09-09T00:00:27.294Z,991.29
2022-09-09T00:01:27.288Z,991.28
2022-09-09T00:02:27.414Z,991.30
2022-09-09T00:03:27.383Z,991.29
2022-09-09T00:04:27.273Z,991.22
2022-09-09T00:05:27.261Z,991.25
2022-09-09T00:06:27.244Z,991.23
2022-09-09T00:07:27.215Z,991.14
2022-09-09T00:08:27.226Z,991.17
2022-09-09T00:09:27.192Z,991.16
2022-09-09T00:10:27.201Z,991.16
2022-09-09T00:11:31.292Z,991.14
2022-09-09T00:12:27.157Z,991.15
2022-09-09T00:13:27.150Z,991.11
2022-09-09T00:14:27.134Z,991.14
2022-09-09T00:15:27.128Z,991.18
2022-09-09T00:16:27.177Z,991.18
2022-09-09T00:17:27.123Z,991.17
2022-09-09T00:18:27.096Z,991.12
2022-09-09T00:19:27.089Z,991.18
2022-09-09T00:20:27.088Z,991.14
2022-09-09T00:21:27.078Z,991.14
2022-09-09T00:22:27.044Z,991.14
2022-09-09T00:23:27.037Z,991.16
2022-09-09T00:24:27.044Z,991.16
2022-09-09T00:25:27.011Z,991.08
2022-09-09T00:26:26.998Z,991.14
2022-09-09T00:27:26.989Z,991.10
2022-09-09T00:28:26.995Z,991.11
2022-09-09T00:29:26.966Z,991.14
2022-09-09T00:30:26.953Z,991.14
2022-09-09T00:31:27.015Z,991.13
2022-09-09T00:32:26.929Z,991.12
2022-09-09T00:33:26.941Z,991.11
2022-09-09T00:34:26.911Z,991.11
2022-09-09T00:35:26.896Z,991.14
2022-09-09T00:36:26.885Z,991.10
2022-09-09T00:37:26.897Z,991.10
2022-09-09T00:38:26.888Z,991.09
2022-09-09T00:39:26.904Z,991.06
2022-09-09T00:40:26.840Z,991.10
2022-09-09T00:41:26.829Z,991.05
2022-09-09T00:42:26.816Z,991.09
2022-09-09T00:43:26.823Z,991.04
2022-09-09T00:44:26.814Z,991.02
2022-09-09T00:45:26.795Z,991.01
2022-09-09T00:46:26.848Z,991.04
2022-09-09T00:47:26.762Z,991.06
2022-09-09T00:48:26.753Z,991.07
2022-09-09T00:49:26.769Z,991.03
2022-09-09T00:50:26.735Z,991.03
2022-09-09T00:51:26.716Z,991.05
2022-09-09T00:52:26.704Z,991.07
2022-09-09T00:53:26.711Z,991.04
2022-09-09T00:54:26.680Z,991.02
2022-09-09T00:55:26.693Z,991.04
2022-09-09T00:56:26.658Z,991.05
2022-09-09T00:57:26.652Z,991.03
2022-09-09T00:58:26.636Z,991.02
2022-09-09T00:59:28.602Z,991.03
2022-09-09T01:00:26.612Z,991.02
2022-09-09T01:01:26.688Z,991.01
2022-09-09T01:02:26.625Z,991.05
2022-09-09T01:03:26.587Z,991.02
2022-09-09T01:04:26.568Z,991.03
2022-09-09T01:05:26.582Z,991.05
2022-09-09T01:06:26.545Z,991.05
2022-09-09T01:07:26.562Z,991.06
2022-09-09T01:08:26.532Z,991.07
2022-09-09T01:09:26.531Z,991.09
2022-09-09T01:10:26.521Z,991.07
2022-09-09T01:11:26.488Z,991.11
2022-09-09T01:12:26.480Z,991.13
2022-09-09T01:13:26.465Z,991.12
2022-09-09T01:14:26.476Z,991.10
2022-09-09T01:15:26.443Z,991.07
2022-09-09T01:16:26.463Z,991.08
2022-09-09T01:17:26.423Z,991.09
2022-09-09T01:18:26.411Z,991.09
2022-09-09T01:19:26.422Z,991.06
2022-09-09T01:20:26.388Z,991.09
2022-09-09T01:21:26.406Z,991.05
2022-09-09T01:22:26.364Z,991.10
2022-09-09T01:23:26.354Z,991.09
2022-09-09T01:24:26.366Z,991.08
2022-09-09T01:25:26.376Z,991.06
2022-09-09T01:26:26.383Z,991.07
2022-09-09T01:27:26.326Z,991.14
2022-09-09T01:28:26.300Z,991.13
2022-09-09T01:29:26.308Z,991.12
2022-09-09T01:30:26.438Z,991.11
2022-09-09T01:31:26.263Z,991.10
2022-09-09T01:32:26.269Z,991.13
2022-09-09T01:33:26.241Z,991.15
2022-09-09T01:34:26.229Z,991.08
2022-09-09T01:35:26.224Z,991.07
2022-09-09T01:36:26.226Z,991.10
2022-09-09T01:37:26.196Z,991.10
2022-09-09T01:38:26.183Z,991.11
2022-09-09T01:39:26.172Z,991.11
2022-09-09T01:40:26.161Z,991.13
2022-09-09T01:41:26.191Z,991.09
2022-09-09T01:42:26.141Z,991.10
2022-09-09T01:43:26.129Z,991.15
2022-09-09T01:44:26.118Z,991.11
2022-09-09T01:45:26.126Z,991.11
2022-09-09T01:46:26.163Z,991.13
2022-09-09T01:47:26.082Z,991.13
2022-09-09T01:48:26.092Z,991.19
2022-09-09T01:49:26.082Z,991.19
2022-09-09T01:50:26.047Z,991.16
2022-09-09T01:51:26.036Z,991.13
2022-09-09T01:52:26.058Z,991.14
2022-09-09T01:53:26.084Z,991.12
2022-09-09T01:54:26.026Z,991.15
2022-09-09T01:55:25.992Z,991.16
2022-09-09T01:56:25.981Z,991.16
2022-09-09T01:57:25.986Z,991.16
2022-09-09T01:58:25.955Z,991.16
2022-09-09T01:59:25.968Z,991.11
2022-09-09T02:00:25.949Z,991.14
2022-09-09T02:01:26.058Z,991.14
2022-09-09T02:02:25.992Z,991.10
2022-09-09T02:03:25.913Z,991.15
2022-09-09T02:04:25.887Z,991.15
2022-09-09T02:05:25.897Z,991.12
2022-09-09T02:06:25.866Z,991.10
2022-09-09T02:07:25.874Z,991.10
2022-09-09T02:08:25.865Z,991.08
2022-09-09T02:09:25.858Z,991.09
2022-09-09T02:10:25.825Z,991.06
2022-09-09T02:11:25.810Z,991.09
2022-09-09T02:12:25.816Z,991.08
2022-09-09T02:13:25.804Z,991.08
2022-09-09T02:14:25.793Z,991.08
2022-09-09T02:15:25.763Z,991.10
2022-09-09T02:16:25.855Z,991.07
2022-09-09T02:17:25.743Z,991.05
2022-09-09T02:18:25.734Z,991.08
2022-09-09T02:19:25.738Z,991.05
2022-09-09T02:20:25.732Z,991.07
2022-09-09T02:21:25.698Z,991.08
2022-09-09T02:22:25.711Z,991.07
2022-09-09T02:23:25.737Z,991.07
2022-09-09T02:24:25.682Z,991.10
2022-09-09T02:25:25.648Z,991.10
2022-09-09T02:26:25.636Z,991.12
2022-09-09T02:27:25.639Z,991.13
2022-09-09T02:28:25.614Z,991.14
2022-09-09T02:29:25.642Z,991.13
2022-09-09T02:30:25.662Z,991.12
2022-09-09T02:31:25.581Z,991.10
2022-09-09T02:32:25.567Z,991.11
2022-09-09T02:33:25.558Z,991.10
2022-09-09T02:34:25.567Z,991.10
2022-09-09T02:35:25.558Z,991.11
2022-09-09T02:36:25.524Z,991.14
2022-09-09T02:37:25.512Z,991.11
2022-09-09T02:38:25.529Z,991.12
2022-09-09T02:39:25.519Z,991.05
2022-09-09T02:40:25.498Z,991.02
2022-09-09T02:41:25.468Z,991.04
2022-09-09T02:42:25.453Z,991.01
2022-09-09T02:43:25.443Z,991.05
2022-09-09T02:44:25.431Z,991.07
2022-09-09T02:45:25.464Z,991.09
2022-09-09T02:46:25.409Z,991.08
2022-09-09T02:47:25.462Z,991.10
2022-09-09T02:48:25.385Z,991.07
2022-09-09T02:49:25.375Z,991.05
2022-09-09T02:50:25.383Z,991.05
2022-09-09T02:51:25.369Z,991.11
2022-09-09T02:52:25.343Z,991.11
2022-09-09T02:53:25.330Z,991.09
2022-09-09T02:54:25.317Z,991.05
2022-09-09T02:55:25.329Z,991.07
2022-09-09T02:56:25.314Z,991.08
2022-09-09T02:57:25.357Z,991.08
2022-09-09T02:58:25.273Z,991.07
2022-09-09T02:59:25.263Z,991.09
2022-09-09T03:00:25.250Z,991.05
2022-09-09T03:01:25.385Z,990.98
2022-09-09T03:02:25.312Z,990.94
2022-09-09T03:03:25.217Z,990.94
2022-09-09T03:04:25.204Z,991.00
2022-09-09T03:05:25.194Z,990.94
2022-09-09T03:06:25.204Z,990.98
2022-09-09T03:07:25.171Z,990.91
2022-09-09T03:08:25.164Z,990.92
2022-09-09T03:09:25.149Z,990.94
2022-09-09T03:10:25.137Z,990.97
2022-09-09T03:11:25.149Z,990.94
2022-09-09T03:12:25.117Z,991.02
2022-09-09T03:13:25.103Z,991.03
2022-09-09T03:14:25.099Z,991.04
2022-09-09T03:15:25.081Z,991.04
2022-09-09T03:16:25.169Z,991.05
2022-09-09T03:17:25.081Z,991.05
2022-09-09T03:18:25.049Z,991.06
2022-09-09T03:19:25.106Z,991.02
2022-09-09T03:20:25.022Z,991.03
2022-09-09T03:21:25.015Z,991.01
2022-09-09T03:22:25.021Z,991.07
2022-09-09T03:23:24.990Z,991.11
2022-09-09T03:24:25.029Z,991.07
2022-09-09T03:25:24.971Z,991.05
2022-09-09T03:26:24.957Z,991.07
2022-09-09T03:27:24.944Z,991.05
2022-09-09T03:28:24.953Z,991.10
2022-09-09T03:29:24.921Z,991.03
2022-09-09T03:30:24.937Z,991.04
2022-09-09T03:31:24.954Z,991.03
2022-09-09T03:32:24.931Z,991.03
2022-09-09T03:33:24.892Z,991.11
2022-09-09T03:34:24.863Z,991.09
2022-09-09T03:35:24.853Z,991.07
2022-09-09T03:36:24.861Z,991.08
2022-09-09T03:37:24.836Z,991.08
2022-09-09T03:38:24.824Z,991.11
2022-09-09T03:39:24.825Z,991.06
2022-09-09T03:40:24.813Z,991.05
2022-09-09T03:41:24.956Z,991.10
2022-09-09T03:42:24.772Z,991.06
2022-09-09T03:43:24.815Z,991.05
2022-09-09T03:44:24.750Z,991.07
2022-09-09T03:45:24.845Z,991.07
2022-09-09T03:46:24.728Z,991.06
2022-09-09T03:47:24.718Z,991.04
2022-09-09T03:48:24.704Z,991.02
2022-09-09T03:49:24.739Z,990.99
2022-09-09T03:50:24.681Z,991.02
2022-09-09T03:51:24.697Z,990.99
2022-09-09T03:52:24.663Z,990.91
2022-09-09T03:53:24.671Z,990.90
2022-09-09T03:54:24.635Z,990.86
2022-09-09T03:55:24.626Z,990.91
2022-09-09T03:56:24.613Z,990.84
2022-09-09T03:57:24.632Z,990.89
2022-09-09T03:58:24.615Z,990.89
2022-09-09T03:59:24.584Z,990.84
2022-09-09T04:00:24.570Z,990.87
2022-09-09T04:01:24.594Z,990.81
2022-09-09T04:02:24.610Z,990.81
2022-09-09T04:03:27.807Z,990.76
2022-09-09T04:04:24.526Z,990.80
2022-09-09T04:05:24.528Z,990.78
2022-09-09T04:06:24.499Z,990.75
2022-09-09T04:07:24.510Z,990.77
2022-09-09T04:08:24.481Z,990.81
2022-09-09T04:09:24.490Z,990.81
2022-09-09T04:10:24.454Z,990.83
2022-09-09T04:11:24.443Z,990.82
2022-09-09T04:12:24.435Z,990.79
2022-09-09T04:13:24.445Z,990.83
2022-09-09T04:14:24.418Z,990.83
2022-09-09T04:15:24.419Z,990.87
2022-09-09T04:16:24.425Z,990.85
2022-09-09T04:17:24.395Z,990.86
2022-09-09T04:18:24.362Z,990.91
2022-09-09T04:19:24.354Z,990.95
2022-09-09T04:20:24.339Z,990.89
2022-09-09T04:21:24.390Z,990.87
2022-09-09T04:22:24.317Z,990.91
2022-09-09T04:23:24.307Z,990.86
2022-09-09T04:24:24.316Z,990.91
2022-09-09T04:25:24.287Z,990.92
2022-09-09T04:26:24.292Z,990.95
2022-09-09T04:27:24.261Z,990.91
2022-09-09T04:28:24.249Z,990.92
2022-09-09T04:29:24.259Z,990.91
2022-09-09T04:30:24.253Z,990.90
2022-09-09T04:31:24.375Z,990.91
2022-09-09T04:32:24.202Z,990.92
2022-09-09T04:33:24.193Z,990.88
2022-09-09T04:34:24.244Z,990.93
2022-09-09T04:35:24.175Z,990.92
2022-09-09T04:36:24.157Z,990.92
2022-09-09T04:37:24.166Z,990.92
2022-09-09T04:38:24.136Z,990.89
2022-09-09T04:39:24.148Z,990.91
2022-09-09T04:40:24.112Z,990.90
2022-09-09T04:41:24.102Z,990.88
2022-09-09T04:42:24.089Z,990.87
2022-09-09T04:43:24.143Z,990.88
2022-09-09T04:44:24.070Z,990.89
2022-09-09T04:45:24.148Z,990.94
2022-09-09T04:46:24.048Z,990.97
2022-09-09T04:47:24.050Z,990.91
2022-09-09T04:48:24.049Z,990.96
2022-09-09T04:49:24.014Z,990.99
2022-09-09T04:50:24.017Z,990.98
2022-09-09T04:51:23.988Z,990.99
2022-09-09T04:52:23.982Z,991.02
2022-09-09T04:53:24.006Z,991.03
2022-09-09T04:54:23.953Z,991.10
2022-09-09T04:55:23.947Z,991.10
2022-09-09T04:56:23.930Z,991.08
2022-09-09T04:57:23.920Z,991.08
2022-09-09T04:58:23.936Z,991.06
2022-09-09T04:59:23.922Z,991.02
2022-09-09T05:00:23.886Z,991.07
2022-09-09T05:01:23.999Z,991.05
2022-09-09T05:02:25.896Z,991.10
2022-09-09T05:03:23.856Z,991.11
2022-09-09T05:04:23.862Z,991.12
2022-09-09T05:05:23.830Z,991.11
2022-09-09T05:06:23.862Z,991.09
2022-09-09T05:07:23.808Z,991.16
2022-09-09T05:08:23.797Z,991.11
2022-09-09T05:09:23.804Z,991.14
2022-09-09T05:10:23.776Z,991.16
2022-09-09T05:11:23.787Z,991.14
2022-09-09T05:12:23.748Z,991.12
2022-09-09T05:13:23.770Z,991.12
2022-09-09T05:14:23.726Z,991.10
2022-09-09T05:15:23.716Z,991.15
2022-09-09T05:16:24.037Z,991.19
2022-09-09T05:17:23.806Z,991.20
2022-09-09T05:18:23.738Z,991.19
2022-09-09T05:19:23.684Z,991.20
2022-09-09T05:20:23.685Z,991.20
2022-09-09T05:21:23.775Z,991.24
2022-09-09T05:22:23.679Z,991.24
2022-09-09T05:23:23.650Z,991.25
2022-09-09T05:24:23.672Z,991.28
2022-09-09T05:25:23.624Z,991.33
2022-09-09T05:26:23.685Z,991.28
2022-09-09T05:27:23.712Z,991.24
2022-09-09T05:28:23.719Z,991.28
2022-09-09T05:29:23.559Z,991.31
2022-09-09T05:30:23.552Z,991.30
2022-09-09T05:31:23.703Z,991.30
2022-09-09T05:32:23.610Z,991.26
2022-09-09T05:33:23.534Z,991.24
2022-09-09T05:34:23.643Z,991.28
2022-09-09T05:35:23.512Z,991.25
2022-09-09T05:36:23.531Z,991.25
2022-09-09T05:37:23.664Z,991.28
2022-09-09T05:38:28.110Z,991.31
2022-09-09T05:39:24.480Z,991.29
2022-09-09T05:40:23.455Z,991.26
2022-09-09T05:41:23.696Z,991.26
2022-09-09T05:42:23.412Z,991.29
2022-09-09T05:43:23.466Z,991.29
2022-09-09T05:44:23.387Z,991.32
2022-09-09T05:45:23.375Z,991.32
2022-09-09T05:46:23.507Z,991.30
2022-09-09T05:47:23.351Z,991.37
2022-09-09T05:48:23.374Z,991.33
2022-09-09T05:49:23.335Z,991.32
2022-09-09T05:50:23.322Z,991.31
2022-09-09T05:51:23.460Z,991.30
2022-09-09T05:52:23.295Z,991.31
2022-09-09T05:53:23.301Z,991.24
2022-09-09T05:54:23.276Z,991.25
2022-09-09T05:55:23.279Z,991.24
2022-09-09T05:56:23.409Z,991.22
2022-09-09T05:57:23.258Z,991.24
2022-09-09T05:58:23.228Z,991.30
2022-09-09T05:59:23.219Z,991.29
2022-09-09T06:00:23.205Z,991.31
2022-09-09T06:01:23.288Z,991.28
2022-09-09T06:02:23.295Z,991.29
2022-09-09T06:03:23.235Z,991.35
2022-09-09T06:04:23.184Z,991.30
2022-09-09T06:05:23.167Z,991.32
2022-09-09T06:06:23.154Z,991.30
2022-09-09T06:07:23.188Z,991.32
2022-09-09T06:08:23.128Z,991.37
2022-09-09T06:09:23.100Z,991.35
2022-09-09T06:10:23.093Z,991.30
2022-09-09T06:11:23.100Z,991.36
2022-09-09T06:12:23.091Z,991.36
2022-09-09T06:13:23.072Z,991.38
2022-09-09T06:14:23.045Z,991.39
2022-09-09T06:15:23.034Z,991.40
2022-09-09T06:16:23.079Z,991.43
2022-09-09T06:17:23.028Z,991.44
2022-09-09T06:18:23.001Z,991.43
2022-09-09T06:19:22.987Z,991.42
2022-09-09T06:20:22.999Z,991.44
2022-09-09T06:21:22.965Z,991.43
2022-09-09T06:22:22.978Z,991.41
2022-09-09T06:23:22.945Z,991.45
2022-09-09T06:24:22.933Z,991.48
2022-09-09T06:25:22.940Z,991.47
2022-09-09T06:26:22.916Z,991.45
2022-09-09T06:27:22.922Z,991.44
2022-09-09T06:28:22.887Z,991.42
2022-09-09T06:29:22.891Z,991.47
2022-09-09T06:30:22.864Z,991.45
2022-09-09T06:31:25.843Z,991.40
2022-09-09T06:32:23.880Z,991.39
2022-09-09T06:33:22.832Z,991.42
2022-09-09T06:34:22.821Z,991.44
2022-09-09T06:35:22.807Z,991.43
2022-09-09T06:36:22.817Z,991.43
2022-09-09T06:37:22.785Z,991.43
2022-09-09T06:38:22.778Z,991.51
2022-09-09T06:39:22.763Z,991.48
2022-09-09T06:40:22.778Z,991.51
2022-09-09T06:41:22.764Z,991.45
2022-09-09T06:42:22.730Z,991.49
2022-09-09T06:43:22.740Z,991.47
2022-09-09T06:44:22.707Z,991.50
2022-09-09T06:45:22.718Z,991.46
2022-09-09T06:46:22.765Z,991.47
2022-09-09T06:47:22.692Z,991.44
2022-09-09T06:48:22.665Z,991.41
2022-09-09T06:49:22.652Z,991.44
2022-09-09T06:50:22.660Z,991.41
2022-09-09T06:51:22.627Z,991.47
2022-09-09T06:52:22.616Z,991.50
2022-09-09T06:53:23.199Z,991.47
2022-09-09T06:54:22.615Z,991.46
2022-09-09T06:55:22.602Z,991.49
2022-09-09T06:56:22.573Z,991.44
2022-09-09T06:57:38.300Z,991.47
2022-09-09T06:58:23.549Z,991.47
2022-09-09T06:59:22.564Z,991.41
2022-09-09T07:00:22.548Z,991.42
2022-09-09T07:01:22.593Z,991.45
2022-09-09T07:02:22.538Z,991.42
2022-09-09T07:03:22.495Z,991.42
2022-09-09T07:04:22.486Z,991.41
2022-09-09T07:05:22.490Z,991.40
2022-09-09T07:06:22.459Z,991.46
2022-09-09T07:07:22.446Z,991.47
2022-09-09T07:08:22.436Z,991.52
2022-09-09T07:09:22.443Z,991.49
2022-09-09T07:10:22.456Z,991.46
2022-09-09T07:11:22.421Z,991.49
2022-09-09T07:12:22.391Z,991.48
2022-09-09T07:13:22.380Z,991.43
2022-09-09T07:14:22.370Z,991.45
2022-09-09T07:15:22.354Z,991.48
2022-09-09T07:16:22.393Z,991.42
2022-09-09T07:17:22.371Z,991.41
2022-09-09T07:18:22.323Z,991.39
2022-09-09T07:19:22.330Z,991.46
2022-09-09T07:20:22.420Z,991.41
2022-09-09T07:21:22.309Z,991.41
2022-09-09T07:22:22.295Z,991.43
2022-09-09T07:23:22.267Z,991.42
2022-09-09T07:24:22.276Z,991.40
2022-09-09T07:25:22.242Z,991.38
2022-09-09T07:26:22.232Z,991.45
2022-09-09T07:27:23.894Z,991.48
2022-09-09T07:28:22.209Z,991.42
2022-09-09T07:29:22.199Z,991.45
2022-09-09T07:30:27.050Z,991.46
2022-09-09T07:31:23.216Z,991.41
2022-09-09T07:32:22.182Z,991.46
2022-09-09T07:33:22.184Z,991.47
2022-09-09T07:34:22.141Z,991.46
2022-09-09T07:35:22.130Z,991.54
2022-09-09T07:36:22.136Z,991.52
2022-09-09T07:37:22.105Z,991.51
2022-09-09T07:38:22.372Z,991.48
2022-09-09T07:39:22.082Z,991.48
2022-09-09T07:40:22.118Z,991.51
2022-09-09T07:41:22.061Z,991.51
2022-09-09T07:42:22.049Z,991.49
2022-09-09T07:43:22.057Z,991.57
2022-09-09T07:44:22.027Z,991.54
2022-09-09T07:45:22.023Z,991.58
2022-09-09T07:46:22.078Z,991.60
2022-09-09T07:47:21.993Z,991.59
2022-09-09T07:48:21.986Z,991.63
2022-09-09T07:49:28.541Z,991.61
2022-09-09T07:50:22.964Z,991.56
2022-09-09T07:51:21.971Z,991.61
2022-09-09T07:52:22.011Z,991.53
2022-09-09T07:53:21.931Z,991.51
2022-09-09T07:54:21.937Z,991.47
2022-09-09T07:55:21.903Z,991.51
2022-09-09T07:56:21.900Z,991.53
2022-09-09T07:57:21.881Z,991.53
2022-09-09T07:58:21.872Z,991.53
2022-09-09T07:59:21.878Z,991.60
2022-09-09T08:00:21.849Z,991.55
2022-09-09T08:01:21.876Z,991.51
2022-09-09T08:02:21.826Z,991.56
2022-09-09T08:03:21.861Z,991.54
2022-09-09T08:04:21.824Z,991.59
2022-09-09T08:05:21.813Z,991.62
2022-09-09T08:06:21.801Z,991.62
2022-09-09T08:07:21.769Z,991.67
2022-09-09T08:08:21.772Z,991.66
2022-09-09T08:09:21.746Z,991.64
2022-09-09T08:10:21.760Z,991.64
2022-09-09T08:11:21.723Z,991.68
2022-09-09T08:12:21.718Z,991.67
2022-09-09T08:13:21.705Z,991.67
2022-09-09T08:14:21.710Z,991.66
2022-09-09T08:15:21.682Z,991.66
2022-09-09T08:16:21.714Z,991.69
2022-09-09T08:17:21.676Z,991.74
2022-09-09T08:18:21.654Z,991.64
2022-09-09T08:19:21.636Z,991.67
2022-09-09T08:20:21.644Z,991.64
2022-09-09T08:21:21.629Z,991.63
2022-09-09T08:22:21.623Z,991.61
2022-09-09T08:23:21.591Z,991.59
2022-09-09T08:24:21.582Z,991.59
2022-09-09T08:25:21.567Z,991.62
2022-09-09T08:26:21.557Z,991.60
2022-09-09T08:27:21.546Z,991.61
2022-09-09T08:28:21.560Z,991.58
2022-09-09T08:29:21.524Z,991.54
2022-09-09T08:30:21.513Z,991.54
2022-09-09T08:31:21.620Z,991.53
2022-09-09T08:32:21.578Z,991.59
2022-09-09T08:33:21.481Z,991.56
2022-09-09T08:34:21.472Z,991.60
2022-09-09T08:35:21.458Z,991.62
2022-09-09T08:36:21.447Z,991.62
2022-09-09T08:37:21.483Z,991.64
2022-09-09T08:38:21.422Z,991.64
2022-09-09T08:39:21.430Z,991.64
2022-09-09T08:40:21.443Z,991.67
2022-09-09T08:41:21.412Z,991.71
2022-09-09T08:42:21.399Z,991.67
2022-09-09T08:43:21.365Z,991.68
2022-09-09T08:44:21.378Z,991.68
2022-09-09T08:45:21.349Z,991.68
2022-09-09T08:46:21.408Z,991.63
2022-09-09T08:47:21.339Z,991.71
2022-09-09T08:48:21.310Z,991.73
2022-09-09T08:49:21.325Z,991.76
2022-09-09T08:50:21.288Z,991.78
2022-09-09T08:51:21.295Z,991.73
2022-09-09T08:52:21.266Z,991.73
2022-09-09T08:53:21.271Z,991.74
2022-09-09T08:54:41.525Z,991.75
2022-09-09T08:55:22.250Z,991.71
2022-09-09T08:56:21.245Z,991.72
2022-09-09T08:57:21.213Z,991.81
2022-09-09T08:58:21.197Z,991.83
2022-09-09T08:59:21.187Z,991.80
2022-09-09T09:00:21.178Z,991.80
2022-09-09T09:01:21.220Z,991.83
2022-09-09T09:02:21.175Z,991.83
2022-09-09T09:03:21.141Z,991.83
2022-09-09T09:04:21.144Z,991.86
2022-09-09T09:05:21.124Z,991.88
2022-09-09T09:06:21.107Z,991.92
2022-09-09T09:07:21.112Z,991.88
2022-09-09T09:08:21.084Z,991.93
2022-09-09T09:09:21.089Z,991.86
2022-09-09T09:10:40.461Z,991.84
2022-09-09T09:11:22.070Z,991.87
2022-09-09T09:12:21.037Z,991.88
2022-09-09T09:13:21.049Z,991.75
2022-09-09T09:14:21.078Z,991.74
2022-09-09T09:15:21.004Z,991.73
2022-09-09T09:16:21.050Z,991.74
2022-09-09T09:17:20.978Z,991.83
2022-09-09T09:18:20.993Z,991.80
2022-09-09T09:19:20.957Z,991.75
2022-09-09T09:20:20.946Z,991.83
2022-09-09T09:21:20.937Z,991.83
2022-09-09T09:22:20.926Z,991.84
2022-09-09T09:23:20.931Z,991.83
2022-09-09T09:24:21.485Z,991.84
2022-09-09T09:25:20.906Z,991.76
2022-09-09T09:26:20.878Z,991.82
2022-09-09T09:27:20.865Z,991.81
2022-09-09T09:28:20.877Z,991.74
2022-09-09T09:29:20.848Z,991.77
2022-09-09T09:30:28.629Z,991.77
2022-09-09T09:31:21.882Z,991.74
2022-09-09T09:32:20.831Z,991.72
2022-09-09T09:33:20.802Z,991.79
2022-09-09T09:34:20.789Z,991.73
2022-09-09T09:35:20.796Z,991.80
2022-09-09T09:36:20.786Z,991.79
2022-09-09T09:37:20.756Z,991.81
2022-09-09T09:40:21.728Z,991.80
2022-09-09T09:41:20.753Z,991.71
2022-09-09T09:42:23.880Z,991.75
2022-09-09T09:43:20.691Z,991.72
2022-09-09T09:44:21.238Z,991.70
2022-09-09T09:45:20.667Z,991.63
2022-09-09T09:46:20.723Z,991.64
2022-09-09T09:47:21.521Z,991.63
2022-09-09T09:48:20.663Z,991.67
2022-09-09T09:49:20.653Z,991.64
2022-09-09T09:50:20.615Z,991.66
2022-09-09T09:51:20.606Z,991.58
2022-09-09T09:52:20.592Z,991.62
2022-09-09T09:53:20.583Z,991.58
2022-09-09T09:54:20.891Z,991.60
2022-09-09T09:55:20.560Z,991.58
2022-09-09T09:56:20.567Z,991.60
2022-09-09T09:57:20.580Z,991.60
2022-09-09T09:58:20.528Z,991.59
2022-09-09T09:59:23.796Z,991.64
2022-09-09T10:00:21.593Z,991.62
2022-09-09T10:01:20.545Z,991.62
2022-09-09T10:02:20.519Z,991.71
2022-09-09T10:03:20.471Z,991.60
2022-09-09T10:04:20.517Z,991.71
2022-09-09T10:05:26.326Z,991.69
2022-09-09T10:06:21.431Z,991.69
2022-09-09T10:07:20.443Z,991.61
2022-09-09T10:08:20.413Z,991.62
2022-09-09T10:09:20.406Z,991.67
2022-09-09T10:10:20.397Z,991.65
2022-09-09T10:11:20.399Z,991.65
2022-09-09T10:12:20.397Z,991.61
2022-09-09T10:13:20.374Z,991.61
2022-09-09T10:14:20.339Z,991.70
2022-09-09T10:15:20.334Z,991.71
2022-09-09T10:16:20.381Z,991.68
2022-09-09T10:17:20.332Z,991.67
2022-09-09T10:18:20.297Z,991.66
2022-09-09T10:19:20.288Z,991.67
2022-09-09T10:20:20.276Z,991.64
2022-09-09T10:21:20.284Z,991.60
2022-09-09T10:22:20.332Z,991.62
2022-09-09T10:23:20.239Z,991.61
2022-09-09T10:24:20.273Z,991.59
2022-09-09T10:25:20.238Z,991.51
2022-09-09T10:26:20.227Z,991.54
2022-09-09T10:27:20.197Z,991.53
2022-09-09T10:28:20.184Z,991.58
2022-09-09T10:29:20.215Z,991.41
2022-09-09T10:30:20.185Z,991.47
2022-09-09T10:31:20.214Z,991.54
2022-09-09T10:32:20.209Z,991.56
2022-09-09T10:33:20.130Z,991.45
2022-09-09T10:34:20.116Z,991.54
2022-09-09T10:35:20.138Z,991.58
2022-09-09T10:36:20.094Z,991.56
2022-09-09T10:37:20.093Z,991.45
2022-09-09T10:38:20.089Z,991.50
2022-09-09T10:39:20.062Z,991.43
2022-09-09T10:40:20.099Z,991.50
2022-09-09T10:41:20.064Z,991.48
2022-09-09T10:42:20.135Z,991.43
2022-09-09T10:43:20.022Z,991.40
2022-09-09T10:44:20.033Z,991.39
2022-09-09T10:45:20.055Z,991.40
2022-09-09T10:46:20.055Z,991.36
2022-09-09T10:47:19.977Z,991.38
2022-09-09T10:48:19.963Z,991.38
2022-09-09T10:49:22.987Z,991.33
2022-09-09T10:50:19.969Z,991.36
2022-09-09T10:51:19.943Z,991.31
2022-09-09T10:52:19.920Z,991.39
2022-09-09T10:53:19.908Z,991.37
2022-09-09T10:54:19.900Z,991.35
2022-09-09T10:55:19.907Z,991.38
2022-09-09T10:56:19.875Z,991.38
2022-09-09T10:57:19.865Z,991.40
2022-09-09T10:58:19.850Z,991.36
2022-09-09T10:59:19.875Z,991.30
2022-09-09T11:00:19.834Z,991.26
2022-09-09T11:01:19.887Z,991.29
2022-09-09T11:02:19.812Z,991.26
2022-09-09T11:03:19.806Z,991.26
2022-09-09T11:04:19.853Z,991.20
2022-09-09T11:05:19.779Z,991.26
2022-09-09T11:06:19.812Z,991.21
2022-09-09T11:07:19.758Z,991.16
2022-09-09T11:08:19.815Z,991.18
2022-09-09T11:09:19.753Z,991.20
2022-09-09T11:10:19.722Z,991.14
2022-09-09T11:11:19.732Z,991.18
2022-09-09T11:12:19.699Z,991.16
2022-09-09T11:13:19.688Z,991.15
2022-09-09T11:14:19.675Z,991.14
2022-09-09T11:15:19.668Z,991.20
2022-09-09T11:16:19.728Z,991.19
2022-09-09T11:17:19.664Z,991.20
2022-09-09T11:18:19.636Z,991.17
2022-09-09T11:19:19.646Z,991.16
2022-09-09T11:20:19.614Z,991.27
2022-09-09T11:21:19.617Z,991.25
2022-09-09T11:22:19.633Z,991.27
2022-09-09T11:23:19.620Z,991.34
2022-09-09T11:24:19.587Z,991.28
2022-09-09T11:25:19.562Z,991.19
2022-09-09T11:26:19.545Z,991.22
2022-09-09T11:27:19.587Z,991.22
2022-09-09T11:28:19.617Z,991.19
2022-09-09T11:29:19.588Z,991.21
2022-09-09T11:30:32.326Z,991.18
2022-09-09T11:31:20.570Z,991.15
2022-09-09T11:32:19.477Z,991.16
2022-09-09T11:33:19.505Z,991.18
2022-09-09T11:34:19.455Z,991.24
2022-09-09T11:35:19.472Z,991.22
2022-09-09T11:36:19.441Z,991.21
2022-09-09T11:37:19.423Z,991.22
2022-09-09T11:38:19.412Z,991.21
2022-09-09T11:39:19.405Z,991.25
2022-09-09T11:40:19.397Z,991.20
2022-09-09T11:41:21.683Z,991.17
2022-09-09T11:42:19.372Z,991.14
2022-09-09T11:43:19.358Z,991.21
2022-09-09T11:44:19.373Z,991.17
2022-09-09T11:45:19.337Z,991.20
2022-09-09T11:46:19.400Z,991.21
2022-09-09T11:47:19.326Z,991.25
2022-09-09T11:48:19.301Z,991.21
2022-09-09T11:49:19.314Z,991.21
2022-09-09T11:50:19.331Z,991.21
2022-09-09T11:51:19.335Z,991.13
2022-09-09T11:52:19.259Z,991.16
2022-09-09T11:53:19.245Z,991.13
2022-09-09T11:54:19.232Z,991.11
2022-09-09T11:55:19.224Z,991.10
2022-09-09T11:56:19.242Z,991.06
2022-09-09T11:57:19.204Z,991.02
2022-09-09T11:58:19.202Z,990.99
2022-09-09T11:59:19.180Z,990.95
2022-09-09T12:00:19.166Z,990.96
2022-09-09T12:01:19.195Z,990.99
2022-09-09T12:02:19.190Z,990.95
2022-09-09T12:03:19.137Z,991.02
2022-09-09T12:04:22.270Z,990.99
2022-09-09T12:05:19.447Z,991.00
2022-09-09T12:06:19.100Z,991.06
2022-09-09T12:07:19.091Z,990.98
2022-09-09T12:08:19.081Z,991.06
2022-09-09T12:09:19.088Z,991.05
2022-09-09T12:10:19.061Z,991.01
2022-09-09T12:11:19.049Z,991.01
2022-09-09T12:12:19.038Z,991.07
2022-09-09T12:13:19.067Z,991.07
2022-09-09T12:14:19.013Z,991.09
2022-09-09T12:15:19.008Z,991.08
2022-09-09T12:16:19.025Z,991.16
2022-09-09T12:17:18.980Z,991.09
2022-09-09T12:18:18.995Z,991.05
2022-09-09T12:19:22.034Z,991.14
2022-09-09T12:20:19.954Z,991.16
2022-09-09T12:21:18.984Z,991.15
2022-09-09T12:22:18.928Z,991.17
2022-09-09T12:23:18.944Z,991.17
2022-09-09T12:24:18.917Z,991.20
2022-09-09T12:25:23.061Z,991.15
2022-09-09T12:26:18.904Z,991.23
2022-09-09T12:27:18.874Z,991.22
2022-09-09T12:28:18.988Z,991.17
2022-09-09T12:29:18.888Z,991.20
2022-09-09T12:30:18.860Z,991.24